sensor_id;sensor_type;location;lat;lon;timestamp;P1;durP1;ratioP1;P2;durP2;ratioP2
52650;SDS011;38537;47.226;39.702;2022-07-09T00:02:20;12.85;;;2.50;;
52650;SDS011;38537;47.226;39.702;2022-07-09T00:04:47;10.43;;;2.40;;
52650;SDS011;38537;47.226;39.702;2022-07-09T00:07:15;13.48;;;2.50;;
52650;SDS011;38537;47.226;39.702;2022-07-09T00:09:42;9.95;;;2.78;;
52650;SDS011;38537;47.226;39.702;2022-07-09T00:12:10;8.82;;;2.47;;
52650;SDS011;38537;47.226;39.702;2022-07-09T00:14:37;11.90;;;2.65;;
52650;SDS011;38537;47.226;39.702;2022-07-09T00:17:07;6.57;;;2.40;;
52650;SDS011;38537;47.226;39.702;2022-07-09T00:19:36;6.82;;;2.55;;
52650;SDS011;38537;47.226;39.702;2022-07-09T00:22:04;7.25;;;2.65;;
52650;SDS011;38537;47.226;39.702;2022-07-09T00:24:32;11.32;;;2.80;;
52650;SDS011;38537;47.226;39.702;2022-07-09T00:26:59;8.25;;;2.20;;
52650;SDS011;38537;47.226;39.702;2022-07-09T00:29:27;8.15;;;2.63;;
52650;SDS011;38537;47.226;39.702;2022-07-09T00:31:54;13.07;;;2.30;;
52650;SDS011;38537;47.226;39.702;2022-07-09T00:34:22;18.35;;;2.80;;
52650;SDS011;38537;47.226;39.702;2022-07-09T00:36:50;7.70;;;2.67;;
52650;SDS011;38537;47.226;39.702;2022-07-09T00:39:17;9.57;;;2.40;;
52650;SDS011;38537;47.226;39.702;2022-07-09T00:41:44;10.80;;;2.80;;
52650;SDS011;38537;47.226;39.702;2022-07-09T00:44:11;12.98;;;2.90;;
52650;SDS011;38537;47.226;39.702;2022-07-09T00:46:39;13.05;;;3.17;;
52650;SDS011;38537;47.226;39.702;2022-07-09T00:49:06;13.00;;;2.97;;
52650;SDS011;38537;47.226;39.702;2022-07-09T00:51:33;17.58;;;2.92;;
52650;SDS011;38537;47.226;39.702;2022-07-09T00:54:01;13.32;;;2.65;;
52650;SDS011;38537;47.226;39.702;2022-07-09T00:56:28;17.02;;;2.50;;
52650;SDS011;38537;47.226;39.702;2022-07-09T00:58:57;10.60;;;2.53;;
52650;SDS011;38537;47.226;39.702;2022-07-09T01:01:26;10.48;;;2.85;;
52650;SDS011;38537;47.226;39.702;2022-07-09T01:03:53;13.07;;;3.10;;
52650;SDS011;38537;47.226;39.702;2022-07-09T01:06:21;20.65;;;3.05;;
52650;SDS011;38537;47.226;39.702;2022-07-09T01:08:48;17.58;;;3.00;;
52650;SDS011;38537;47.226;39.702;2022-07-09T01:11:15;12.40;;;3.03;;
52650;SDS011;38537;47.226;39.702;2022-07-09T01:13:42;11.45;;;2.80;;
52650;SDS011;38537;47.226;39.702;2022-07-09T01:16:13;13.05;;;2.92;;
52650;SDS011;38537;47.226;39.702;2022-07-09T01:18:48;13.00;;;2.63;;
52650;SDS011;38537;47.226;39.702;2022-07-09T01:21:15;16.45;;;3.10;;
52650;SDS011;38537;47.226;39.702;2022-07-09T01:23:42;9.88;;;2.85;;
52650;SDS011;38537;47.226;39.702;2022-07-09T01:26:10;19.38;;;2.80;;
52650;SDS011;38537;47.226;39.702;2022-07-09T01:28:37;18.15;;;3.13;;
52650;SDS011;38537;47.226;39.702;2022-07-09T01:31:05;13.38;;;2.47;;
52650;SDS011;38537;47.226;39.702;2022-07-09T01:33:32;22.38;;;2.85;;
52650;SDS011;38537;47.226;39.702;2022-07-09T01:36:00;18.65;;;2.85;;
52650;SDS011;38537;47.226;39.702;2022-07-09T01:38:27;13.55;;;2.72;;
52650;SDS011;38537;47.226;39.702;2022-07-09T01:40:54;15.88;;;3.17;;
52650;SDS011;38537;47.226;39.702;2022-07-09T01:43:21;17.23;;;3.00;;
52650;SDS011;38537;47.226;39.702;2022-07-09T01:45:49;13.70;;;2.80;;
52650;SDS011;38537;47.226;39.702;2022-07-09T01:48:16;12.07;;;3.17;;
52650;SDS011;38537;47.226;39.702;2022-07-09T01:50:43;17.23;;;2.75;;
52650;SDS011;38537;47.226;39.702;2022-07-09T01:53:11;14.60;;;2.97;;
52650;SDS011;38537;47.226;39.702;2022-07-09T01:55:38;17.52;;;3.22;;
52650;SDS011;38537;47.226;39.702;2022-07-09T01:58:05;16.75;;;3.08;;
52650;SDS011;38537;47.226;39.702;2022-07-09T02:00:32;19.52;;;2.95;;
52650;SDS011;38537;47.226;39.702;2022-07-09T02:03:00;13.00;;;2.70;;
52650;SDS011;38537;47.226;39.702;2022-07-09T02:05:27;17.55;;;3.33;;
52650;SDS011;38537;47.226;39.702;2022-07-09T02:07:54;14.60;;;3.00;;
52650;SDS011;38537;47.226;39.702;2022-07-09T02:10:21;16.17;;;2.90;;
52650;SDS011;38537;47.226;39.702;2022-07-09T02:12:49;17.52;;;2.90;;
52650;SDS011;38537;47.226;39.702;2022-07-09T02:15:16;18.85;;;3.38;;
52650;SDS011;38537;47.226;39.702;2022-07-09T02:17:43;13.90;;;2.60;;
52650;SDS011;38537;47.226;39.702;2022-07-09T02:20:11;13.50;;;2.80;;
52650;SDS011;38537;47.226;39.702;2022-07-09T02:22:38;17.30;;;2.90;;
52650;SDS011;38537;47.226;39.702;2022-07-09T02:25:06;17.08;;;2.92;;
52650;SDS011;38537;47.226;39.702;2022-07-09T02:27:33;21.38;;;3.08;;
52650;SDS011;38537;47.226;39.702;2022-07-09T02:30:01;20.63;;;3.08;;
52650;SDS011;38537;47.226;39.702;2022-07-09T02:32:29;18.83;;;3.20;;
52650;SDS011;38537;47.226;39.702;2022-07-09T02:34:56;14.57;;;3.40;;
52650;SDS011;38537;47.226;39.702;2022-07-09T02:37:24;29.08;;;3.25;;
52650;SDS011;38537;47.226;39.702;2022-07-09T02:39:51;15.65;;;2.78;;
52650;SDS011;38537;47.226;39.702;2022-07-09T02:42:18;19.33;;;2.95;;
52650;SDS011;38537;47.226;39.702;2022-07-09T02:44:45;18.50;;;3.10;;
52650;SDS011;38537;47.226;39.702;2022-07-09T02:47:13;16.88;;;2.80;;
52650;SDS011;38537;47.226;39.702;2022-07-09T02:49:40;18.27;;;3.20;;
52650;SDS011;38537;47.226;39.702;2022-07-09T02:52:07;15.52;;;2.63;;
52650;SDS011;38537;47.226;39.702;2022-07-09T02:54:35;18.60;;;2.75;;
52650;SDS011;38537;47.226;39.702;2022-07-09T02:57:02;17.92;;;3.10;;
52650;SDS011;38537;47.226;39.702;2022-07-09T02:59:29;14.40;;;2.60;;
52650;SDS011;38537;47.226;39.702;2022-07-09T03:01:57;21.88;;;3.08;;
52650;SDS011;38537;47.226;39.702;2022-07-09T03:04:24;23.10;;;2.80;;
52650;SDS011;38537;47.226;39.702;2022-07-09T03:06:52;18.40;;;2.95;;
52650;SDS011;38537;47.226;39.702;2022-07-09T03:09:19;14.55;;;2.67;;
52650;SDS011;38537;47.226;39.702;2022-07-09T03:11:47;15.43;;;2.88;;
52650;SDS011;38537;47.226;39.702;2022-07-09T03:14:14;17.17;;;2.80;;
52650;SDS011;38537;47.226;39.702;2022-07-09T03:16:41;12.40;;;2.55;;
52650;SDS011;38537;47.226;39.702;2022-07-09T03:19:09;18.75;;;2.70;;
52650;SDS011;38537;47.226;39.702;2022-07-09T03:21:36;13.65;;;2.40;;
52650;SDS011;38537;47.226;39.702;2022-07-09T03:24:03;16.63;;;2.70;;
52650;SDS011;38537;47.226;39.702;2022-07-09T03:26:31;16.13;;;2.70;;
52650;SDS011;38537;47.226;39.702;2022-07-09T03:28:58;11.23;;;2.55;;
52650;SDS011;38537;47.226;39.702;2022-07-09T03:31:25;17.15;;;2.97;;
52650;SDS011;38537;47.226;39.702;2022-07-09T03:33:53;13.68;;;2.35;;
52650;SDS011;38537;47.226;39.702;2022-07-09T03:36:21;17.08;;;2.85;;
52650;SDS011;38537;47.226;39.702;2022-07-09T03:38:48;18.45;;;2.78;;
52650;SDS011;38537;47.226;39.702;2022-07-09T03:41:15;19.05;;;2.55;;
52650;SDS011;38537;47.226;39.702;2022-07-09T03:43:43;13.52;;;2.50;;
52650;SDS011;38537;47.226;39.702;2022-07-09T03:46:10;14.88;;;2.50;;
52650;SDS011;38537;47.226;39.702;2022-07-09T03:48:37;16.67;;;2.72;;
52650;SDS011;38537;47.226;39.702;2022-07-09T03:51:05;18.52;;;3.22;;
52650;SDS011;38537;47.226;39.702;2022-07-09T03:53:32;13.80;;;2.60;;
52650;SDS011;38537;47.226;39.702;2022-07-09T03:56:00;16.48;;;3.10;;
52650;SDS011;38537;47.226;39.702;2022-07-09T03:58:28;20.13;;;3.00;;
52650;SDS011;38537;47.226;39.702;2022-07-09T04:00:55;19.38;;;2.85;;
52650;SDS011;38537;47.226;39.702;2022-07-09T04:03:22;19.95;;;3.13;;
52650;SDS011;38537;47.226;39.702;2022-07-09T04:05:50;19.05;;;3.03;;
52650;SDS011;38537;47.226;39.702;2022-07-09T04:08:17;19.05;;;2.75;;
52650;SDS011;38537;47.226;39.702;2022-07-09T04:10:44;16.27;;;2.90;;
52650;SDS011;38537;47.226;39.702;2022-07-09T04:13:11;12.00;;;2.95;;
52650;SDS011;38537;47.226;39.702;2022-07-09T04:15:40;21.80;;;2.92;;
52650;SDS011;38537;47.226;39.702;2022-07-09T04:18:07;11.95;;;2.60;;
52650;SDS011;38537;47.226;39.702;2022-07-09T04:20:35;17.88;;;2.60;;
52650;SDS011;38537;47.226;39.702;2022-07-09T04:23:02;18.98;;;3.00;;
52650;SDS011;38537;47.226;39.702;2022-07-09T04:25:29;20.88;;;3.08;;
52650;SDS011;38537;47.226;39.702;2022-07-09T04:27:56;20.35;;;2.83;;
52650;SDS011;38537;47.226;39.702;2022-07-09T04:30:26;21.92;;;3.53;;
52650;SDS011;38537;47.226;39.702;2022-07-09T04:32:54;14.68;;;2.25;;
52650;SDS011;38537;47.226;39.702;2022-07-09T04:35:21;17.75;;;2.63;;
52650;SDS011;38537;47.226;39.702;2022-07-09T04:37:48;16.80;;;2.92;;
52650;SDS011;38537;47.226;39.702;2022-07-09T04:40:16;15.43;;;2.75;;
52650;SDS011;38537;47.226;39.702;2022-07-09T04:42:43;14.02;;;2.55;;
52650;SDS011;38537;47.226;39.702;2022-07-09T04:45:10;13.52;;;2.53;;
52650;SDS011;38537;47.226;39.702;2022-07-09T04:47:38;16.40;;;2.88;;
52650;SDS011;38537;47.226;39.702;2022-07-09T04:50:05;9.45;;;2.83;;
52650;SDS011;38537;47.226;39.702;2022-07-09T04:52:32;16.83;;;2.65;;
52650;SDS011;38537;47.226;39.702;2022-07-09T04:54:59;13.35;;;2.58;;
52650;SDS011;38537;47.226;39.702;2022-07-09T04:57:29;14.68;;;2.80;;
52650;SDS011;38537;47.226;39.702;2022-07-09T04:59:59;10.43;;;2.33;;
52650;SDS011;38537;47.226;39.702;2022-07-09T05:02:30;14.10;;;2.30;;
52650;SDS011;38537;47.226;39.702;2022-07-09T05:04:57;15.52;;;2.63;;
52650;SDS011;38537;47.226;39.702;2022-07-09T05:07:25;12.23;;;2.60;;
52650;SDS011;38537;47.226;39.702;2022-07-09T05:09:52;22.02;;;3.67;;
52650;SDS011;38537;47.226;39.702;2022-07-09T05:12:19;23.30;;;2.88;;
52650;SDS011;38537;47.226;39.702;2022-07-09T05:14:47;18.17;;;2.58;;
52650;SDS011;38537;47.226;39.702;2022-07-09T05:17:14;13.50;;;2.78;;
52650;SDS011;38537;47.226;39.702;2022-07-09T05:19:41;13.57;;;2.95;;
52650;SDS011;38537;47.226;39.702;2022-07-09T05:22:08;12.65;;;2.67;;
52650;SDS011;38537;47.226;39.702;2022-07-09T05:24:36;14.93;;;2.47;;
52650;SDS011;38537;47.226;39.702;2022-07-09T05:27:03;15.18;;;2.78;;
52650;SDS011;38537;47.226;39.702;2022-07-09T05:29:32;15.52;;;2.47;;
52650;SDS011;38537;47.226;39.702;2022-07-09T05:31:59;15.05;;;2.78;;
52650;SDS011;38537;47.226;39.702;2022-07-09T05:34:26;17.42;;;2.22;;
52650;SDS011;38537;47.226;39.702;2022-07-09T05:36:55;12.18;;;2.60;;
52650;SDS011;38537;47.226;39.702;2022-07-09T05:39:22;15.43;;;3.28;;
52650;SDS011;38537;47.226;39.702;2022-07-09T05:41:50;19.33;;;2.80;;
52650;SDS011;38537;47.226;39.702;2022-07-09T05:44:17;14.98;;;2.42;;
52650;SDS011;38537;47.226;39.702;2022-07-09T05:46:50;17.30;;;2.65;;
52650;SDS011;38537;47.226;39.702;2022-07-09T05:49:17;21.10;;;3.05;;
52650;SDS011;38537;47.226;39.702;2022-07-09T05:51:45;11.18;;;2.92;;
52650;SDS011;38537;47.226;39.702;2022-07-09T05:54:13;14.80;;;2.60;;
52650;SDS011;38537;47.226;39.702;2022-07-09T05:56:41;13.35;;;2.33;;
52650;SDS011;38537;47.226;39.702;2022-07-09T05:59:08;14.10;;;2.60;;
52650;SDS011;38537;47.226;39.702;2022-07-09T06:01:35;14.55;;;2.20;;
52650;SDS011;38537;47.226;39.702;2022-07-09T06:04:06;10.60;;;2.38;;
52650;SDS011;38537;47.226;39.702;2022-07-09T06:06:34;14.00;;;2.45;;
52650;SDS011;38537;47.226;39.702;2022-07-09T06:09:02;11.82;;;2.42;;
52650;SDS011;38537;47.226;39.702;2022-07-09T06:11:30;11.63;;;2.15;;
52650;SDS011;38537;47.226;39.702;2022-07-09T06:13:57;13.25;;;3.42;;
52650;SDS011;38537;47.226;39.702;2022-07-09T06:16:24;14.13;;;2.97;;
52650;SDS011;38537;47.226;39.702;2022-07-09T06:18:52;10.52;;;2.75;;
52650;SDS011;38537;47.226;39.702;2022-07-09T06:21:19;13.85;;;2.80;;
52650;SDS011;38537;47.226;39.702;2022-07-09T06:23:47;16.23;;;3.05;;
52650;SDS011;38537;47.226;39.702;2022-07-09T06:26:14;13.55;;;2.55;;
52650;SDS011;38537;47.226;39.702;2022-07-09T06:28:41;14.38;;;2.55;;
52650;SDS011;38537;47.226;39.702;2022-07-09T06:31:08;20.10;;;4.07;;
52650;SDS011;38537;47.226;39.702;2022-07-09T06:33:36;10.73;;;2.85;;
52650;SDS011;38537;47.226;39.702;2022-07-09T06:36:03;15.75;;;2.40;;
52650;SDS011;38537;47.226;39.702;2022-07-09T06:38:31;14.00;;;2.40;;
52650;SDS011;38537;47.226;39.702;2022-07-09T06:40:59;15.82;;;2.72;;
52650;SDS011;38537;47.226;39.702;2022-07-09T06:43:26;14.40;;;2.30;;
52650;SDS011;38537;47.226;39.702;2022-07-09T06:45:58;9.07;;;2.67;;
52650;SDS011;38537;47.226;39.702;2022-07-09T06:48:25;12.25;;;2.88;;
52650;SDS011;38537;47.226;39.702;2022-07-09T06:50:52;13.25;;;2.55;;
52650;SDS011;38537;47.226;39.702;2022-07-09T06:53:19;14.60;;;2.47;;
52650;SDS011;38537;47.226;39.702;2022-07-09T06:55:47;10.75;;;2.47;;
52650;SDS011;38537;47.226;39.702;2022-07-09T06:58:14;10.95;;;2.47;;
52650;SDS011;38537;47.226;39.702;2022-07-09T07:00:41;14.27;;;2.30;;
52650;SDS011;38537;47.226;39.702;2022-07-09T07:03:09;12.13;;;2.22;;
52650;SDS011;38537;47.226;39.702;2022-07-09T07:05:36;9.77;;;2.30;;
52650;SDS011;38537;47.226;39.702;2022-07-09T07:08:03;11.93;;;1.95;;
52650;SDS011;38537;47.226;39.702;2022-07-09T07:10:31;11.70;;;2.50;;
52650;SDS011;38537;47.226;39.702;2022-07-09T07:12:58;7.65;;;2.03;;
52650;SDS011;38537;47.226;39.702;2022-07-09T07:15:25;10.48;;;1.80;;
52650;SDS011;38537;47.226;39.702;2022-07-09T07:17:52;8.60;;;2.00;;
52650;SDS011;38537;47.226;39.702;2022-07-09T07:20:24;7.40;;;1.55;;
52650;SDS011;38537;47.226;39.702;2022-07-09T07:22:52;7.75;;;1.92;;
52650;SDS011;38537;47.226;39.702;2022-07-09T07:25:19;8.98;;;1.73;;
52650;SDS011;38537;47.226;39.702;2022-07-09T07:27:46;4.95;;;1.45;;
52650;SDS011;38537;47.226;39.702;2022-07-09T07:30:14;8.00;;;1.40;;
52650;SDS011;38537;47.226;39.702;2022-07-09T07:32:41;4.47;;;1.30;;
52650;SDS011;38537;47.226;39.702;2022-07-09T07:35:08;4.10;;;1.33;;
52650;SDS011;38537;47.226;39.702;2022-07-09T07:37:35;4.75;;;1.15;;
52650;SDS011;38537;47.226;39.702;2022-07-09T07:40:03;4.57;;;1.23;;
52650;SDS011;38537;47.226;39.702;2022-07-09T07:42:37;6.47;;;1.27;;
52650;SDS011;38537;47.226;39.702;2022-07-09T07:45:04;3.92;;;1.20;;
52650;SDS011;38537;47.226;39.702;2022-07-09T07:47:32;3.72;;;1.20;;
52650;SDS011;38537;47.226;39.702;2022-07-09T07:49:59;6.63;;;1.38;;
52650;SDS011;38537;47.226;39.702;2022-07-09T07:52:29;6.15;;;1.40;;
52650;SDS011;38537;47.226;39.702;2022-07-09T07:54:56;8.15;;;1.73;;
52650;SDS011;38537;47.226;39.702;2022-07-09T07:57:23;4.25;;;1.25;;
52650;SDS011;38537;47.226;39.702;2022-07-09T07:59:51;8.40;;;1.40;;
52650;SDS011;38537;47.226;39.702;2022-07-09T08:02:18;6.25;;;1.20;;
52650;SDS011;38537;47.226;39.702;2022-07-09T08:04:46;6.75;;;1.30;;
52650;SDS011;38537;47.226;39.702;2022-07-09T08:07:13;5.07;;;1.08;;
52650;SDS011;38537;47.226;39.702;2022-07-09T08:09:40;6.00;;;1.20;;
52650;SDS011;38537;47.226;39.702;2022-07-09T08:12:08;4.63;;;1.50;;
52650;SDS011;38537;47.226;39.702;2022-07-09T08:14:35;7.57;;;1.15;;
52650;SDS011;38537;47.226;39.702;2022-07-09T08:17:03;3.92;;;1.25;;
52650;SDS011;38537;47.226;39.702;2022-07-09T08:19:31;9.52;;;1.40;;
52650;SDS011;38537;47.226;39.702;2022-07-09T08:21:59;4.22;;;1.20;;
52650;SDS011;38537;47.226;39.702;2022-07-09T08:24:26;6.15;;;1.20;;
52650;SDS011;38537;47.226;39.702;2022-07-09T08:26:54;11.38;;;1.60;;
52650;SDS011;38537;47.226;39.702;2022-07-09T08:29:21;3.42;;;1.40;;
52650;SDS011;38537;47.226;39.702;2022-07-09T08:31:48;7.47;;;1.45;;
52650;SDS011;38537;47.226;39.702;2022-07-09T08:34:16;7.93;;;1.50;;
52650;SDS011;38537;47.226;39.702;2022-07-09T08:36:44;6.78;;;1.38;;
52650;SDS011;38537;47.226;39.702;2022-07-09T08:39:12;6.43;;;1.77;;
52650;SDS011;38537;47.226;39.702;2022-07-09T08:41:39;7.72;;;1.30;;
52650;SDS011;38537;47.226;39.702;2022-07-09T08:44:09;7.18;;;1.38;;
52650;SDS011;38537;47.226;39.702;2022-07-09T08:46:38;7.18;;;1.90;;
52650;SDS011;38537;47.226;39.702;2022-07-09T08:49:07;7.43;;;1.52;;
52650;SDS011;38537;47.226;39.702;2022-07-09T08:51:35;6.93;;;1.60;;
52650;SDS011;38537;47.226;39.702;2022-07-09T08:54:05;6.78;;;1.42;;
52650;SDS011;38537;47.226;39.702;2022-07-09T08:56:34;6.60;;;1.40;;
52650;SDS011;38537;47.226;39.702;2022-07-09T08:59:02;4.22;;;1.25;;
52650;SDS011;38537;47.226;39.702;2022-07-09T09:01:29;6.40;;;1.40;;
52650;SDS011;38537;47.226;39.702;2022-07-09T09:03:57;8.75;;;1.33;;
52650;SDS011;38537;47.226;39.702;2022-07-09T09:06:24;5.85;;;1.42;;
52650;SDS011;38537;47.226;39.702;2022-07-09T09:08:53;3.55;;;1.30;;
52650;SDS011;38537;47.226;39.702;2022-07-09T09:11:22;5.75;;;1.30;;
52650;SDS011;38537;47.226;39.702;2022-07-09T09:13:51;9.68;;;1.40;;
52650;SDS011;38537;47.226;39.702;2022-07-09T09:16:20;4.22;;;1.55;;
52650;SDS011;38537;47.226;39.702;2022-07-09T09:18:50;2.70;;;1.20;;
52650;SDS011;38537;47.226;39.702;2022-07-09T09:21:22;6.28;;;1.55;;
52650;SDS011;38537;47.226;39.702;2022-07-09T09:23:52;7.28;;;1.45;;
52650;SDS011;38537;47.226;39.702;2022-07-09T09:26:24;5.10;;;1.40;;
52650;SDS011;38537;47.226;39.702;2022-07-09T09:28:54;2.65;;;1.33;;
52650;SDS011;38537;47.226;39.702;2022-07-09T09:31:22;5.80;;;1.40;;
52650;SDS011;38537;47.226;39.702;2022-07-09T09:33:52;8.50;;;1.60;;
52650;SDS011;38537;47.226;39.702;2022-07-09T09:36:28;5.45;;;1.50;;
52650;SDS011;38537;47.226;39.702;2022-07-09T09:39:27;5.93;;;1.58;;
52650;SDS011;38537;47.226;39.702;2022-07-09T09:42:00;8.93;;;1.70;;
52650;SDS011;38537;47.226;39.702;2022-07-09T09:44:29;7.03;;;1.60;;
52650;SDS011;38537;47.226;39.702;2022-07-09T09:47:04;5.22;;;1.50;;
52650;SDS011;38537;47.226;39.702;2022-07-09T09:49:34;8.20;;;1.40;;
52650;SDS011;38537;47.226;39.702;2022-07-09T09:52:07;9.63;;;1.70;;
52650;SDS011;38537;47.226;39.702;2022-07-09T09:54:39;8.48;;;1.85;;
52650;SDS011;38537;47.226;39.702;2022-07-09T09:57:13;5.35;;;1.52;;
52650;SDS011;38537;47.226;39.702;2022-07-09T09:59:44;3.88;;;1.60;;
52650;SDS011;38537;47.226;39.702;2022-07-09T10:02:12;7.20;;;1.63;;
52650;SDS011;38537;47.226;39.702;2022-07-09T10:04:41;7.45;;;1.80;;
52650;SDS011;38537;47.226;39.702;2022-07-09T10:07:10;4.93;;;1.67;;
52650;SDS011;38537;47.226;39.702;2022-07-09T10:09:38;9.98;;;2.13;;
52650;SDS011;38537;47.226;39.702;2022-07-09T10:12:06;3.83;;;1.38;;
52650;SDS011;38537;47.226;39.702;2022-07-09T10:14:37;12.68;;;1.95;;
52650;SDS011;38537;47.226;39.702;2022-07-09T10:17:10;7.15;;;1.85;;
52650;SDS011;38537;47.226;39.702;2022-07-09T10:19:38;5.18;;;1.58;;
52650;SDS011;38537;47.226;39.702;2022-07-09T10:22:16;11.00;;;2.05;;
52650;SDS011;38537;47.226;39.702;2022-07-09T10:24:44;5.40;;;1.55;;
52650;SDS011;38537;47.226;39.702;2022-07-09T10:27:13;6.95;;;1.80;;
52650;SDS011;38537;47.226;39.702;2022-07-09T10:29:56;10.38;;;1.60;;
52650;SDS011;38537;47.226;39.702;2022-07-09T10:32:28;8.27;;;1.60;;
52650;SDS011;38537;47.226;39.702;2022-07-09T10:35:00;6.53;;;1.52;;
52650;SDS011;38537;47.226;39.702;2022-07-09T10:40:04;5.53;;;1.60;;
52650;SDS011;38537;47.226;39.702;2022-07-09T10:42:36;7.97;;;1.83;;
52650;SDS011;38537;47.226;39.702;2022-07-09T10:45:20;10.20;;;1.70;;
52650;SDS011;38537;47.226;39.702;2022-07-09T10:47:52;4.43;;;1.52;;
52650;SDS011;38537;47.226;39.702;2022-07-09T10:50:25;2.83;;;1.40;;
52650;SDS011;38537;47.226;39.702;2022-07-09T10:52:54;5.72;;;1.60;;
52650;SDS011;38537;47.226;39.702;2022-07-09T10:55:23;3.80;;;1.50;;
52650;SDS011;38537;47.226;39.702;2022-07-09T10:57:52;7.53;;;1.50;;
52650;SDS011;38537;47.226;39.702;2022-07-09T11:00:21;6.90;;;1.77;;
52650;SDS011;38537;47.226;39.702;2022-07-09T11:05:23;6.22;;;1.50;;
52650;SDS011;38537;47.226;39.702;2022-07-09T11:07:57;7.05;;;1.75;;
52650;SDS011;38537;47.226;39.702;2022-07-09T11:10:30;7.90;;;2.00;;
52650;SDS011;38537;47.226;39.702;2022-07-09T11:12:58;4.72;;;1.40;;
52650;SDS011;38537;47.226;39.702;2022-07-09T11:15:28;6.13;;;1.70;;
52650;SDS011;38537;47.226;39.702;2022-07-09T11:18:18;4.47;;;1.50;;
52650;SDS011;38537;47.226;39.702;2022-07-09T11:20:46;6.78;;;1.80;;
52650;SDS011;38537;47.226;39.702;2022-07-09T11:23:14;12.15;;;1.95;;
52650;SDS011;38537;47.226;39.702;2022-07-09T11:25:43;6.97;;;1.60;;
52650;SDS011;38537;47.226;39.702;2022-07-09T11:28:20;5.65;;;1.60;;
52650;SDS011;38537;47.226;39.702;2022-07-09T11:31:04;6.75;;;1.67;;
52650;SDS011;38537;47.226;39.702;2022-07-09T11:33:32;7.20;;;2.35;;
52650;SDS011;38537;47.226;39.702;2022-07-09T11:36:21;7.72;;;2.85;;
52650;SDS011;38537;47.226;39.702;2022-07-09T11:38:49;8.35;;;2.50;;
52650;SDS011;38537;47.226;39.702;2022-07-09T11:41:17;10.77;;;2.20;;
52650;SDS011;38537;47.226;39.702;2022-07-09T11:43:46;9.48;;;2.17;;
52650;SDS011;38537;47.226;39.702;2022-07-09T11:46:20;6.90;;;1.95;;
52650;SDS011;38537;47.226;39.702;2022-07-09T11:48:49;4.97;;;2.08;;
52650;SDS011;38537;47.226;39.702;2022-07-09T11:51:54;8.48;;;2.40;;
52650;SDS011;38537;47.226;39.702;2022-07-09T11:54:14;8.23;;;2.45;;
52650;SDS011;38537;47.226;39.702;2022-07-09T11:56:41;5.82;;;2.50;;
52650;SDS011;38537;47.226;39.702;2022-07-09T11:59:12;10.07;;;2.20;;
52650;SDS011;38537;47.226;39.702;2022-07-09T12:01:40;8.00;;;2.10;;
52650;SDS011;38537;47.226;39.702;2022-07-09T12:04:17;6.80;;;2.03;;
52650;SDS011;38537;47.226;39.702;2022-07-09T12:06:47;8.73;;;1.95;;
52650;SDS011;38537;47.226;39.702;2022-07-09T12:09:15;9.43;;;2.42;;
52650;SDS011;38537;47.226;39.702;2022-07-09T12:11:55;8.00;;;1.88;;
52650;SDS011;38537;47.226;39.702;2022-07-09T12:14:23;10.30;;;1.92;;
52650;SDS011;38537;47.226;39.702;2022-07-09T12:16:50;7.60;;;1.88;;
52650;SDS011;38537;47.226;39.702;2022-07-09T12:19:17;5.72;;;1.77;;
52650;SDS011;38537;47.226;39.702;2022-07-09T12:21:45;3.88;;;1.60;;
52650;SDS011;38537;47.226;39.702;2022-07-09T12:24:12;4.07;;;1.90;;
52650;SDS011;38537;47.226;39.702;2022-07-09T12:26:40;9.15;;;1.70;;
52650;SDS011;38537;47.226;39.702;2022-07-09T12:29:27;9.38;;;2.22;;
52650;SDS011;38537;47.226;39.702;2022-07-09T12:31:54;7.45;;;2.00;;
52650;SDS011;38537;47.226;39.702;2022-07-09T12:34:22;6.32;;;1.80;;
52650;SDS011;38537;47.226;39.702;2022-07-09T12:36:50;4.85;;;1.67;;
52650;SDS011;38537;47.226;39.702;2022-07-09T12:39:25;7.72;;;1.73;;
52650;SDS011;38537;47.226;39.702;2022-07-09T12:41:53;6.40;;;2.00;;
52650;SDS011;38537;47.226;39.702;2022-07-09T12:44:20;6.60;;;1.70;;
52650;SDS011;38537;47.226;39.702;2022-07-09T12:46:48;5.60;;;1.70;;
52650;SDS011;38537;47.226;39.702;2022-07-09T12:49:15;6.97;;;2.00;;
52650;SDS011;38537;47.226;39.702;2022-07-09T12:51:43;3.95;;;1.90;;
52650;SDS011;38537;47.226;39.702;2022-07-09T12:54:10;11.18;;;2.08;;
52650;SDS011;38537;47.226;39.702;2022-07-09T12:56:37;6.57;;;1.70;;
52650;SDS011;38537;47.226;39.702;2022-07-09T12:59:25;5.70;;;1.75;;
52650;SDS011;38537;47.226;39.702;2022-07-09T13:01:53;5.40;;;1.80;;
52650;SDS011;38537;47.226;39.702;2022-07-09T13:04:20;8.38;;;1.80;;
52650;SDS011;38537;47.226;39.702;2022-07-09T13:06:47;5.07;;;1.52;;
52650;SDS011;38537;47.226;39.702;2022-07-09T13:09:15;5.15;;;1.70;;
52650;SDS011;38537;47.226;39.702;2022-07-09T13:11:42;6.97;;;1.65;;
52650;SDS011;38537;47.226;39.702;2022-07-09T13:14:10;7.00;;;1.70;;
52650;SDS011;38537;47.226;39.702;2022-07-09T13:16:38;10.25;;;2.17;;
52650;SDS011;38537;47.226;39.702;2022-07-09T13:19:05;5.75;;;1.52;;
52650;SDS011;38537;47.226;39.702;2022-07-09T13:21:32;6.30;;;1.63;;
52650;SDS011;38537;47.226;39.702;2022-07-09T13:24:00;8.18;;;1.80;;
52650;SDS011;38537;47.226;39.702;2022-07-09T13:26:27;8.82;;;1.73;;
52650;SDS011;38537;47.226;39.702;2022-07-09T13:29:02;7.63;;;1.70;;
52650;SDS011;38537;47.226;39.702;2022-07-09T13:31:29;7.03;;;2.40;;
52650;SDS011;38537;47.226;39.702;2022-07-09T13:33:56;5.03;;;1.60;;
52650;SDS011;38537;47.226;39.702;2022-07-09T13:36:24;6.35;;;1.67;;
52650;SDS011;38537;47.226;39.702;2022-07-09T13:38:51;6.93;;;1.90;;
52650;SDS011;38537;47.226;39.702;2022-07-09T13:41:18;7.50;;;2.10;;
52650;SDS011;38537;47.226;39.702;2022-07-09T13:43:46;7.82;;;1.77;;
52650;SDS011;38537;47.226;39.702;2022-07-09T13:46:13;6.93;;;1.80;;
52650;SDS011;38537;47.226;39.702;2022-07-09T13:48:41;8.82;;;2.15;;
52650;SDS011;38537;47.226;39.702;2022-07-09T13:51:08;9.10;;;1.92;;
52650;SDS011;38537;47.226;39.702;2022-07-09T13:53:37;5.80;;;1.80;;
52650;SDS011;38537;47.226;39.702;2022-07-09T13:56:04;9.95;;;2.10;;
52650;SDS011;38537;47.226;39.702;2022-07-09T13:58:32;8.85;;;2.10;;
52650;SDS011;38537;47.226;39.702;2022-07-09T14:00:59;10.75;;;2.30;;
52650;SDS011;38537;47.226;39.702;2022-07-09T14:03:27;12.88;;;2.08;;
52650;SDS011;38537;47.226;39.702;2022-07-09T14:05:54;5.20;;;1.70;;
52650;SDS011;38537;47.226;39.702;2022-07-09T14:08:22;6.38;;;1.75;;
52650;SDS011;38537;47.226;39.702;2022-07-09T14:10:51;6.53;;;1.92;;
52650;SDS011;38537;47.226;39.702;2022-07-09T14:13:25;6.82;;;1.83;;
52650;SDS011;38537;47.226;39.702;2022-07-09T14:15:55;8.93;;;2.00;;
52650;SDS011;38537;47.226;39.702;2022-07-09T14:18:25;9.75;;;2.35;;
52650;SDS011;38537;47.226;39.702;2022-07-09T14:20:52;6.13;;;2.20;;
52650;SDS011;38537;47.226;39.702;2022-07-09T14:23:19;9.38;;;2.25;;
52650;SDS011;38537;47.226;39.702;2022-07-09T14:25:46;5.68;;;1.92;;
52650;SDS011;38537;47.226;39.702;2022-07-09T14:28:14;12.00;;;2.25;;
52650;SDS011;38537;47.226;39.702;2022-07-09T14:30:41;10.32;;;1.90;;
52650;SDS011;38537;47.226;39.702;2022-07-09T14:33:10;8.85;;;2.53;;
52650;SDS011;38537;47.226;39.702;2022-07-09T14:35:37;9.60;;;2.00;;
52650;SDS011;38537;47.226;39.702;2022-07-09T14:38:04;10.40;;;2.10;;
52650;SDS011;38537;47.226;39.702;2022-07-09T14:40:32;8.82;;;1.95;;
52650;SDS011;38537;47.226;39.702;2022-07-09T14:42:59;17.83;;;2.13;;